Airfield :
LOGIN :

Register | Disclaimer

   EN    FR    IT 

 










Legend :    VFR   Marginal VFR   IFR   Intensive IFR   Very Intensive IFR
Visi :
Ceiling :
>= 8 km
>= 3000ft
5 to 8 km
1000 to 3000 ft
1500m to 5 km
500 to 1000 ft
800 to 1500m
200 to 500 ft
< 800m
< 200 ft
Symbols :   Thunderstorms  Fog  Heavy snow  Heavy precipitations  Wind > 20 kt
SIGMETs :     Misc.  Thunderstorms  Icing  Turbulence  Mountain Waves  Volcanic Ashes






- Airport Elevation : 65 ft
- IATA code : PIK


EGPK - Glasgow Prestwick

CURRENT METAR :
  • 151850Z 12008KT 9999 FEW020 BKN025 11/08 Q0999

EXPIRED METARs :
  • 151820Z 13007KT 9999 FEW022 BKN028 11/08 Q0999
  • 151750Z 21003KT 9999 FEW022 BKN028 11/08 Q1000
  • 151720Z 21004KT 9999 FEW024 BKN029 11/08 Q1000
  • 151650Z 21004KT 9999 FEW024 BKN029 12/08 Q1000
  • 151620Z 21005KT 9999 FEW025 SCT035 13/08 Q1000

TAF TAF EGPK
Valid from the 15 at 18:00 until the 16 at 18:00 UTC


151659Z 1518/1618 18009KT 9999 SCT030
PROB30
TEMPO 1520/1610 BKN012
TEMPO 1603/1610 7000 -RADZ
PROB30
TEMPO 1604/1609 4000 RADZ BKN008
BECMG 1609/1611 26010KT



MET'MAP, your aeronautical weather chart ! - Copyright ORBIFLY December 2007 - Disclaimer

ORBIFLY MET'MAP TEAM :

Programming & Development : Alexandra Zaïnal
Concept & Development : Baudouin d'Aumeries
Co-Development & Prog : Marc-Olivier Méhu
Technical & hardware support : Manuel Goepfert

Contact : metmap@orbifly.com




SOURCES & CREDITS :

   NOAA